Humidity-temperature Sensor

Selected Measurement Type: Air Temperature

 
Air Temperature [°C]     6 entries per hour
Showing data from 12/15/2022 (00:00:00 Z) to 12/14/2022 (00:01:00 Z)
Previous Next [ Day | 3-Days | 7-Days ]
First Last
Prev [ Day | 3-Days | 7-Days ] Next
First Last

Start Time:     :
End Time:     :     
Time (in GMT) :00 :50 :40 :30 :20 :10
Previous Next [ Day | 3-Days | 7-Days ]
First Last
Prev [ Day | 3-Days | 7-Days ] Next
First Last


123 => good data
MM => data is determined as missing
-- => data not received/configured
Back to Top Back to Top
12/15/2022 00:00 to 23:10 23.92 24.12 24.13 24.07 23.87 24.23
12/14/2022 23:00 to 22:10 24.11 23.83 23.94 24.05 23.87 24.24
12/14/2022 22:00 to 21:10 24.05 24.18 24.33 24.22 24.18 24.17
12/14/2022 21:00 to 20:10 24.31 24.17 23.95 24.15 24.14 24.25
12/14/2022 20:00 to 19:10 24.24 24.20 24.27 24.48 24.80 25.28
12/14/2022 19:00 to 18:10 25.66 25.47 25.22 25.10 25.17 25.43
12/14/2022 18:00 to 17:10 25.49 25.77 25.84 26.01 25.85 25.93
12/14/2022 17:00 to 16:10 26.02 26.09 26.02 25.93 25.96 25.89
12/14/2022 16:00 to 15:10 25.91 25.97 25.85 26.03 25.85 25.89
12/14/2022 15:00 to 14:10 25.75 25.57 25.92 25.78 25.73 25.78
12/14/2022 14:00 to 13:10 25.57 25.69 25.49 25.44 25.70 25.81
12/14/2022 13:00 to 12:10 25.62 25.68 25.67 25.73 25.71 25.56
12/14/2022 12:00 to 11:10 25.76 25.60 25.55 25.61 25.50 25.58
12/14/2022 11:00 to 10:10 25.49 25.47 25.54 25.46 25.54 25.50
12/14/2022 10:00 to 9:10 25.58 25.33 25.45 25.45 25.41 25.34
12/14/2022 09:00 to 8:10 25.30 25.53 25.50 25.48 25.41 25.55
12/14/2022 08:00 to 7:10 25.64 25.43 25.56 25.44 25.38 25.40
12/14/2022 07:00 to 6:10 25.48 25.72 25.67 25.59 25.58 25.52
12/14/2022 06:00 to 5:10 25.61 25.52 25.61 25.52 25.61 25.71
12/14/2022 05:00 to 4:10 25.60 25.61 25.47 25.55 25.62 25.70
12/14/2022 04:00 to 3:10 25.78 25.73 25.77 25.64 25.70 25.67
12/14/2022 03:00 to 2:10 25.73 25.78 25.68 25.65 25.68 25.63
12/14/2022 02:00 to 1:10 25.72 25.48 25.67 25.62 25.70 25.64
12/14/2022 01:00 to 0:10 25.68 25.67 25.74 25.65 25.59 25.72